sensor_id;sensor_type;location;lat;lon;timestamp;P1;durP1;ratioP1;P2;durP2;ratioP2
70216;SDS011;65567;55.684;37.570;2023-08-08T00:00:15;6.78;;;2.47;;
70216;SDS011;65567;55.684;37.570;2023-08-08T00:02:42;4.72;;;2.50;;
70216;SDS011;65567;55.684;37.570;2023-08-08T00:05:08;8.23;;;2.50;;
70216;SDS011;65567;55.684;37.570;2023-08-08T00:07:34;6.72;;;2.90;;
70216;SDS011;65567;55.684;37.570;2023-08-08T00:10:00;3.50;;;2.28;;
70216;SDS011;65567;55.684;37.570;2023-08-08T00:12:26;6.22;;;2.40;;
70216;SDS011;65567;55.684;37.570;2023-08-08T00:14:52;6.35;;;3.17;;
70216;SDS011;65567;55.684;37.570;2023-08-08T00:17:17;5.85;;;2.60;;
70216;SDS011;65567;55.684;37.570;2023-08-08T00:19:43;3.33;;;2.40;;
70216;SDS011;65567;55.684;37.570;2023-08-08T00:22:09;4.95;;;2.88;;
70216;SDS011;65567;55.684;37.570;2023-08-08T00:24:35;3.15;;;2.60;;
70216;SDS011;65567;55.684;37.570;2023-08-08T00:27:01;4.20;;;2.70;;
70216;SDS011;65567;55.684;37.570;2023-08-08T00:29:27;3.97;;;2.28;;
70216;SDS011;65567;55.684;37.570;2023-08-08T00:31:53;5.95;;;2.47;;
70216;SDS011;65567;55.684;37.570;2023-08-08T00:34:22;4.10;;;2.22;;
70216;SDS011;65567;55.684;37.570;2023-08-08T00:36:48;5.03;;;2.50;;
70216;SDS011;65567;55.684;37.570;2023-08-08T00:39:15;9.55;;;2.67;;
70216;SDS011;65567;55.684;37.570;2023-08-08T00:41:41;6.28;;;2.60;;
70216;SDS011;65567;55.684;37.570;2023-08-08T00:44:07;5.60;;;2.13;;
70216;SDS011;65567;55.684;37.570;2023-08-08T00:46:33;4.35;;;2.30;;
70216;SDS011;65567;55.684;37.570;2023-08-08T00:48:59;5.95;;;2.53;;
70216;SDS011;65567;55.684;37.570;2023-08-08T00:51:26;4.88;;;2.70;;
70216;SDS011;65567;55.684;37.570;2023-08-08T00:53:51;6.88;;;2.55;;
70216;SDS011;65567;55.684;37.570;2023-08-08T00:56:18;6.75;;;2.83;;
70216;SDS011;65567;55.684;37.570;2023-08-08T00:58:44;7.35;;;3.10;;
70216;SDS011;65567;55.684;37.570;2023-08-08T01:01:11;7.13;;;3.20;;
70216;SDS011;65567;55.684;37.570;2023-08-08T01:03:38;7.15;;;3.38;;
70216;SDS011;65567;55.684;37.570;2023-08-08T01:06:23;5.70;;;2.95;;
70216;SDS011;65567;55.684;37.570;2023-08-08T01:09:31;5.75;;;2.78;;
70216;SDS011;65567;55.684;37.570;2023-08-08T01:12:02;3.50;;;2.53;;
70216;SDS011;65567;55.684;37.570;2023-08-08T01:14:31;6.25;;;3.15;;
70216;SDS011;65567;55.684;37.570;2023-08-08T01:16:58;5.43;;;2.60;;
70216;SDS011;65567;55.684;37.570;2023-08-08T01:19:29;3.35;;;2.00;;
70216;SDS011;65567;55.684;37.570;2023-08-08T01:22:04;5.43;;;3.05;;
70216;SDS011;65567;55.684;37.570;2023-08-08T01:24:33;4.80;;;3.00;;
70216;SDS011;65567;55.684;37.570;2023-08-08T01:27:02;6.55;;;3.25;;
70216;SDS011;65567;55.684;37.570;2023-08-08T01:29:30;7.57;;;2.60;;
70216;SDS011;65567;55.684;37.570;2023-08-08T01:31:56;3.22;;;2.35;;
70216;SDS011;65567;55.684;37.570;2023-08-08T01:34:22;3.53;;;3.05;;
70216;SDS011;65567;55.684;37.570;2023-08-08T01:39:41;5.68;;;2.88;;
70216;SDS011;65567;55.684;37.570;2023-08-08T01:42:09;4.72;;;3.30;;
70216;SDS011;65567;55.684;37.570;2023-08-08T01:44:38;6.28;;;3.00;;
70216;SDS011;65567;55.684;37.570;2023-08-08T01:47:11;3.38;;;2.90;;
70216;SDS011;65567;55.684;37.570;2023-08-08T01:49:37;4.68;;;2.67;;
70216;SDS011;65567;55.684;37.570;2023-08-08T01:52:07;3.63;;;2.58;;
70216;SDS011;65567;55.684;37.570;2023-08-08T01:54:33;4.00;;;2.83;;
70216;SDS011;65567;55.684;37.570;2023-08-08T01:57:00;5.22;;;3.05;;
70216;SDS011;65567;55.684;37.570;2023-08-08T01:59:25;5.30;;;3.03;;
70216;SDS011;65567;55.684;37.570;2023-08-08T02:01:51;4.07;;;3.10;;
70216;SDS011;65567;55.684;37.570;2023-08-08T02:04:19;5.65;;;2.47;;
70216;SDS011;65567;55.684;37.570;2023-08-08T02:06:46;4.40;;;3.13;;
70216;SDS011;65567;55.684;37.570;2023-08-08T02:09:12;6.53;;;2.78;;
70216;SDS011;65567;55.684;37.570;2023-08-08T02:11:41;3.58;;;2.83;;
70216;SDS011;65567;55.684;37.570;2023-08-08T02:14:07;4.93;;;2.78;;
70216;SDS011;65567;55.684;37.570;2023-08-08T02:16:34;4.85;;;2.85;;
70216;SDS011;65567;55.684;37.570;2023-08-08T02:19:01;4.25;;;3.42;;
70216;SDS011;65567;55.684;37.570;2023-08-08T02:21:27;7.63;;;2.83;;
70216;SDS011;65567;55.684;37.570;2023-08-08T02:23:53;4.95;;;3.40;;
70216;SDS011;65567;55.684;37.570;2023-08-08T02:26:19;6.38;;;3.00;;
70216;SDS011;65567;55.684;37.570;2023-08-08T02:28:45;5.63;;;2.97;;
70216;SDS011;65567;55.684;37.570;2023-08-08T02:31:11;4.28;;;3.20;;
70216;SDS011;65567;55.684;37.570;2023-08-08T02:33:37;7.60;;;3.28;;
70216;SDS011;65567;55.684;37.570;2023-08-08T02:36:03;6.68;;;2.88;;
70216;SDS011;65567;55.684;37.570;2023-08-08T02:38:30;3.85;;;2.95;;
70216;SDS011;65567;55.684;37.570;2023-08-08T02:40:55;8.10;;;3.38;;
70216;SDS011;65567;55.684;37.570;2023-08-08T02:43:21;5.60;;;2.97;;
70216;SDS011;65567;55.684;37.570;2023-08-08T02:45:47;3.85;;;3.08;;
70216;SDS011;65567;55.684;37.570;2023-08-08T02:48:13;6.45;;;3.75;;
70216;SDS011;65567;55.684;37.570;2023-08-08T02:50:40;3.85;;;2.92;;
70216;SDS011;65567;55.684;37.570;2023-08-08T02:53:06;6.65;;;2.95;;
70216;SDS011;65567;55.684;37.570;2023-08-08T02:55:32;4.55;;;2.97;;
70216;SDS011;65567;55.684;37.570;2023-08-08T02:57:58;6.30;;;3.22;;
70216;SDS011;65567;55.684;37.570;2023-08-08T03:00:24;5.78;;;3.30;;
70216;SDS011;65567;55.684;37.570;2023-08-08T03:02:50;4.60;;;3.08;;
70216;SDS011;65567;55.684;37.570;2023-08-08T03:05:16;4.57;;;3.13;;
70216;SDS011;65567;55.684;37.570;2023-08-08T03:07:42;6.40;;;3.13;;
70216;SDS011;65567;55.684;37.570;2023-08-08T03:10:08;6.70;;;2.90;;
70216;SDS011;65567;55.684;37.570;2023-08-08T03:12:34;6.78;;;3.05;;
70216;SDS011;65567;55.684;37.570;2023-08-08T03:15:04;5.07;;;3.22;;
70216;SDS011;65567;55.684;37.570;2023-08-08T03:17:31;5.20;;;3.13;;
70216;SDS011;65567;55.684;37.570;2023-08-08T03:19:57;7.32;;;2.92;;
70216;SDS011;65567;55.684;37.570;2023-08-08T03:22:23;5.82;;;3.20;;
70216;SDS011;65567;55.684;37.570;2023-08-08T03:24:51;3.80;;;2.80;;
70216;SDS011;65567;55.684;37.570;2023-08-08T03:27:17;8.55;;;3.33;;
70216;SDS011;65567;55.684;37.570;2023-08-08T03:29:43;3.88;;;2.95;;
70216;SDS011;65567;55.684;37.570;2023-08-08T03:32:10;6.60;;;3.30;;
70216;SDS011;65567;55.684;37.570;2023-08-08T03:34:35;7.88;;;3.00;;
70216;SDS011;65567;55.684;37.570;2023-08-08T03:37:02;5.90;;;2.70;;
70216;SDS011;65567;55.684;37.570;2023-08-08T03:39:28;4.88;;;3.10;;
70216;SDS011;65567;55.684;37.570;2023-08-08T03:41:54;6.00;;;3.50;;
70216;SDS011;65567;55.684;37.570;2023-08-08T03:44:23;5.90;;;3.40;;
70216;SDS011;65567;55.684;37.570;2023-08-08T03:46:49;6.82;;;3.20;;
70216;SDS011;65567;55.684;37.570;2023-08-08T03:49:16;8.73;;;3.72;;
70216;SDS011;65567;55.684;37.570;2023-08-08T03:51:42;5.38;;;4.13;;
70216;SDS011;65567;55.684;37.570;2023-08-08T03:54:07;5.35;;;3.67;;
70216;SDS011;65567;55.684;37.570;2023-08-08T03:56:34;7.90;;;3.47;;
70216;SDS011;65567;55.684;37.570;2023-08-08T03:58:59;7.65;;;3.53;;
70216;SDS011;65567;55.684;37.570;2023-08-08T04:01:26;6.07;;;4.30;;
70216;SDS011;65567;55.684;37.570;2023-08-08T04:03:53;8.73;;;3.72;;
70216;SDS011;65567;55.684;37.570;2023-08-08T04:06:18;12.88;;;4.22;;
70216;SDS011;65567;55.684;37.570;2023-08-08T04:08:44;7.97;;;4.50;;
70216;SDS011;65567;55.684;37.570;2023-08-08T04:11:10;5.57;;;3.65;;
70216;SDS011;65567;55.684;37.570;2023-08-08T04:13:39;7.28;;;4.18;;
70216;SDS011;65567;55.684;37.570;2023-08-08T04:16:05;7.70;;;4.07;;
70216;SDS011;65567;55.684;37.570;2023-08-08T04:18:31;5.47;;;4.38;;
70216;SDS011;65567;55.684;37.570;2023-08-08T04:20:57;7.72;;;4.70;;
70216;SDS011;65567;55.684;37.570;2023-08-08T04:23:23;5.18;;;4.15;;
70216;SDS011;65567;55.684;37.570;2023-08-08T04:25:51;6.35;;;4.28;;
70216;SDS011;65567;55.684;37.570;2023-08-08T04:28:18;5.82;;;3.88;;
70216;SDS011;65567;55.684;37.570;2023-08-08T04:30:44;7.72;;;4.35;;
70216;SDS011;65567;55.684;37.570;2023-08-08T04:33:11;7.03;;;3.40;;
70216;SDS011;65567;55.684;37.570;2023-08-08T04:35:37;8.88;;;3.28;;
70216;SDS011;65567;55.684;37.570;2023-08-08T04:38:03;3.95;;;2.97;;
70216;SDS011;65567;55.684;37.570;2023-08-08T04:40:32;5.22;;;3.78;;
70216;SDS011;65567;55.684;37.570;2023-08-08T04:43:00;6.97;;;3.25;;
70216;SDS011;65567;55.684;37.570;2023-08-08T04:45:25;6.18;;;3.80;;
70216;SDS011;65567;55.684;37.570;2023-08-08T04:47:52;6.60;;;3.88;;
70216;SDS011;65567;55.684;37.570;2023-08-08T04:50:18;5.93;;;3.83;;
70216;SDS011;65567;55.684;37.570;2023-08-08T04:52:46;8.63;;;3.85;;
70216;SDS011;65567;55.684;37.570;2023-08-08T04:55:12;6.03;;;3.40;;
70216;SDS011;65567;55.684;37.570;2023-08-08T04:57:38;5.40;;;3.50;;
70216;SDS011;65567;55.684;37.570;2023-08-08T05:00:05;9.60;;;4.03;;
70216;SDS011;65567;55.684;37.570;2023-08-08T05:02:35;5.82;;;3.38;;
70216;SDS011;65567;55.684;37.570;2023-08-08T05:05:01;9.68;;;3.83;;
70216;SDS011;65567;55.684;37.570;2023-08-08T05:07:28;7.22;;;3.92;;
70216;SDS011;65567;55.684;37.570;2023-08-08T05:09:54;10.57;;;3.45;;
70216;SDS011;65567;55.684;37.570;2023-08-08T05:12:20;6.15;;;3.60;;
70216;SDS011;65567;55.684;37.570;2023-08-08T05:14:46;8.48;;;3.97;;
70216;SDS011;65567;55.684;37.570;2023-08-08T05:17:12;5.85;;;3.60;;
70216;SDS011;65567;55.684;37.570;2023-08-08T05:19:38;7.30;;;3.90;;
70216;SDS011;65567;55.684;37.570;2023-08-08T05:22:04;8.93;;;3.85;;
70216;SDS011;65567;55.684;37.570;2023-08-08T05:24:31;4.60;;;3.60;;
70216;SDS011;65567;55.684;37.570;2023-08-08T05:26:57;12.32;;;4.07;;
70216;SDS011;65567;55.684;37.570;2023-08-08T05:29:24;5.90;;;3.65;;
70216;SDS011;65567;55.684;37.570;2023-08-08T05:31:49;5.97;;;3.67;;
70216;SDS011;65567;55.684;37.570;2023-08-08T05:34:19;5.47;;;3.40;;
70216;SDS011;65567;55.684;37.570;2023-08-08T05:36:44;6.47;;;3.67;;
70216;SDS011;65567;55.684;37.570;2023-08-08T05:39:10;6.15;;;4.05;;
70216;SDS011;65567;55.684;37.570;2023-08-08T05:41:36;4.90;;;3.80;;
70216;SDS011;65567;55.684;37.570;2023-08-08T05:44:02;9.18;;;4.60;;
70216;SDS011;65567;55.684;37.570;2023-08-08T05:46:29;6.38;;;4.00;;
70216;SDS011;65567;55.684;37.570;2023-08-08T05:48:55;9.82;;;3.70;;
70216;SDS011;65567;55.684;37.570;2023-08-08T05:51:21;9.02;;;3.85;;
70216;SDS011;65567;55.684;37.570;2023-08-08T05:53:47;5.22;;;3.33;;
70216;SDS011;65567;55.684;37.570;2023-08-08T05:56:13;12.68;;;4.00;;
70216;SDS011;65567;55.684;37.570;2023-08-08T05:58:39;6.53;;;3.63;;
70216;SDS011;65567;55.684;37.570;2023-08-08T06:01:05;6.53;;;3.50;;
70216;SDS011;65567;55.684;37.570;2023-08-08T06:03:34;5.30;;;3.10;;
70216;SDS011;65567;55.684;37.570;2023-08-08T06:06:03;5.53;;;3.42;;
70216;SDS011;65567;55.684;37.570;2023-08-08T06:08:29;5.03;;;3.08;;
70216;SDS011;65567;55.684;37.570;2023-08-08T06:10:56;7.53;;;3.63;;
70216;SDS011;65567;55.684;37.570;2023-08-08T06:13:21;8.32;;;3.78;;
70216;SDS011;65567;55.684;37.570;2023-08-08T06:15:47;7.03;;;3.70;;
70216;SDS011;65567;55.684;37.570;2023-08-08T06:18:13;6.30;;;3.65;;
70216;SDS011;65567;55.684;37.570;2023-08-08T06:20:39;6.63;;;3.33;;
70216;SDS011;65567;55.684;37.570;2023-08-08T06:23:05;6.18;;;3.70;;
70216;SDS011;65567;55.684;37.570;2023-08-08T06:25:33;8.88;;;3.80;;
70216;SDS011;65567;55.684;37.570;2023-08-08T06:27:59;7.00;;;4.00;;
70216;SDS011;65567;55.684;37.570;2023-08-08T06:30:25;8.38;;;3.83;;
70216;SDS011;65567;55.684;37.570;2023-08-08T06:32:50;10.13;;;4.03;;
70216;SDS011;65567;55.684;37.570;2023-08-08T06:35:16;7.38;;;4.10;;
70216;SDS011;65567;55.684;37.570;2023-08-08T06:37:43;9.52;;;4.10;;
70216;SDS011;65567;55.684;37.570;2023-08-08T06:40:10;10.98;;;4.00;;
70216;SDS011;65567;55.684;37.570;2023-08-08T06:42:36;8.15;;;3.97;;
70216;SDS011;65567;55.684;37.570;2023-08-08T06:45:02;6.00;;;3.72;;
70216;SDS011;65567;55.684;37.570;2023-08-08T06:47:28;7.03;;;3.78;;
70216;SDS011;65567;55.684;37.570;2023-08-08T06:49:54;8.45;;;4.07;;
70216;SDS011;65567;55.684;37.570;2023-08-08T06:52:21;10.82;;;4.80;;
70216;SDS011;65567;55.684;37.570;2023-08-08T06:54:48;8.40;;;3.80;;
70216;SDS011;65567;55.684;37.570;2023-08-08T06:57:13;6.93;;;4.00;;
70216;SDS011;65567;55.684;37.570;2023-08-08T06:59:39;8.43;;;3.70;;
70216;SDS011;65567;55.684;37.570;2023-08-08T07:02:06;6.75;;;3.90;;
70216;SDS011;65567;55.684;37.570;2023-08-08T07:04:32;5.45;;;3.67;;
70216;SDS011;65567;55.684;37.570;2023-08-08T07:06:58;6.85;;;3.90;;
70216;SDS011;65567;55.684;37.570;2023-08-08T07:09:23;10.43;;;4.22;;
70216;SDS011;65567;55.684;37.570;2023-08-08T07:11:50;7.63;;;4.05;;
70216;SDS011;65567;55.684;37.570;2023-08-08T07:14:16;9.45;;;4.65;;
70216;SDS011;65567;55.684;37.570;2023-08-08T07:16:42;8.85;;;4.40;;
70216;SDS011;65567;55.684;37.570;2023-08-08T07:19:23;8.55;;;4.45;;
70216;SDS011;65567;55.684;37.570;2023-08-08T07:21:49;8.38;;;4.55;;
70216;SDS011;65567;55.684;37.570;2023-08-08T07:24:15;7.57;;;4.38;;
70216;SDS011;65567;55.684;37.570;2023-08-08T07:26:42;6.65;;;3.90;;
70216;SDS011;65567;55.684;37.570;2023-08-08T07:29:08;6.85;;;4.15;;
70216;SDS011;65567;55.684;37.570;2023-08-08T07:31:33;7.60;;;4.68;;
70216;SDS011;65567;55.684;37.570;2023-08-08T07:33:59;8.90;;;4.70;;
70216;SDS011;65567;55.684;37.570;2023-08-08T07:36:25;8.60;;;4.40;;
70216;SDS011;65567;55.684;37.570;2023-08-08T07:38:51;10.73;;;4.20;;
70216;SDS011;65567;55.684;37.570;2023-08-08T07:41:16;8.32;;;4.15;;
70216;SDS011;65567;55.684;37.570;2023-08-08T07:43:43;10.52;;;4.18;;
70216;SDS011;65567;55.684;37.570;2023-08-08T07:46:09;9.18;;;4.50;;
70216;SDS011;65567;55.684;37.570;2023-08-08T07:48:35;6.95;;;4.50;;
70216;SDS011;65567;55.684;37.570;2023-08-08T07:51:01;10.48;;;5.20;;
70216;SDS011;65567;55.684;37.570;2023-08-08T07:53:27;11.63;;;5.90;;
70216;SDS011;65567;55.684;37.570;2023-08-08T07:55:52;10.57;;;5.55;;
70216;SDS011;65567;55.684;37.570;2023-08-08T07:58:18;10.18;;;5.18;;
70216;SDS011;65567;55.684;37.570;2023-08-08T08:00:44;12.43;;;4.90;;
70216;SDS011;65567;55.684;37.570;2023-08-08T08:03:10;9.35;;;5.68;;
70216;SDS011;65567;55.684;37.570;2023-08-08T08:05:36;10.02;;;5.78;;
70216;SDS011;65567;55.684;37.570;2023-08-08T08:08:02;11.38;;;5.47;;
70216;SDS011;65567;55.684;37.570;2023-08-08T08:10:29;8.98;;;4.80;;
70216;SDS011;65567;55.684;37.570;2023-08-08T08:12:55;9.38;;;5.50;;
70216;SDS011;65567;55.684;37.570;2023-08-08T08:15:23;8.65;;;5.38;;
70216;SDS011;65567;55.684;37.570;2023-08-08T08:17:50;8.07;;;5.20;;
70216;SDS011;65567;55.684;37.570;2023-08-08T08:20:16;9.45;;;4.85;;
70216;SDS011;65567;55.684;37.570;2023-08-08T08:22:42;9.18;;;5.55;;
70216;SDS011;65567;55.684;37.570;2023-08-08T08:25:08;10.63;;;5.20;;
70216;SDS011;65567;55.684;37.570;2023-08-08T08:27:35;10.20;;;4.70;;
70216;SDS011;65567;55.684;37.570;2023-08-08T08:30:03;12.75;;;5.18;;
70216;SDS011;65567;55.684;37.570;2023-08-08T08:32:33;8.57;;;5.20;;
70216;SDS011;65567;55.684;37.570;2023-08-08T08:35:01;8.43;;;4.38;;
70216;SDS011;65567;55.684;37.570;2023-08-08T08:37:31;9.20;;;5.63;;
70216;SDS011;65567;55.684;37.570;2023-08-08T08:39:57;13.30;;;5.53;;
70216;SDS011;65567;55.684;37.570;2023-08-08T08:42:23;10.60;;;5.57;;
70216;SDS011;65567;55.684;37.570;2023-08-08T08:44:51;11.07;;;5.90;;
70216;SDS011;65567;55.684;37.570;2023-08-08T08:47:20;9.13;;;5.30;;
70216;SDS011;65567;55.684;37.570;2023-08-08T08:49:49;8.50;;;5.15;;
70216;SDS011;65567;55.684;37.570;2023-08-08T08:52:16;12.70;;;5.40;;
70216;SDS011;65567;55.684;37.570;2023-08-08T08:54:42;8.48;;;5.38;;
70216;SDS011;65567;55.684;37.570;2023-08-08T08:57:08;9.15;;;4.82;;
70216;SDS011;65567;55.684;37.570;2023-08-08T08:59:34;12.15;;;6.10;;
70216;SDS011;65567;55.684;37.570;2023-08-08T09:02:00;13.15;;;5.97;;
70216;SDS011;65567;55.684;37.570;2023-08-08T09:04:27;9.18;;;5.40;;
70216;SDS011;65567;55.684;37.570;2023-08-08T09:06:54;12.38;;;6.28;;
70216;SDS011;65567;55.684;37.570;2023-08-08T09:09:20;7.00;;;5.10;;
70216;SDS011;65567;55.684;37.570;2023-08-08T09:11:49;9.50;;;5.93;;
70216;SDS011;65567;55.684;37.570;2023-08-08T09:14:25;12.48;;;5.97;;
70216;SDS011;65567;55.684;37.570;2023-08-08T09:16:53;11.40;;;5.93;;
70216;SDS011;65567;55.684;37.570;2023-08-08T09:19:20;13.98;;;6.57;;
70216;SDS011;65567;55.684;37.570;2023-08-08T09:21:46;15.52;;;6.30;;
70216;SDS011;65567;55.684;37.570;2023-08-08T09:24:13;12.20;;;6.18;;
70216;SDS011;65567;55.684;37.570;2023-08-08T09:26:39;9.25;;;5.82;;
70216;SDS011;65567;55.684;37.570;2023-08-08T09:29:06;13.32;;;6.55;;
70216;SDS011;65567;55.684;37.570;2023-08-08T09:31:34;12.10;;;6.20;;
70216;SDS011;65567;55.684;37.570;2023-08-08T09:34:01;12.65;;;6.15;;
70216;SDS011;65567;55.684;37.570;2023-08-08T09:36:28;9.55;;;6.78;;
70216;SDS011;65567;55.684;37.570;2023-08-08T09:38:54;14.45;;;6.72;;
70216;SDS011;65567;55.684;37.570;2023-08-08T09:41:23;11.25;;;5.25;;
70216;SDS011;65567;55.684;37.570;2023-08-08T09:43:51;14.55;;;6.80;;
70216;SDS011;65567;55.684;37.570;2023-08-08T09:46:21;13.60;;;7.28;;
70216;SDS011;65567;55.684;37.570;2023-08-08T09:51:14;15.32;;;6.80;;
70216;SDS011;65567;55.684;37.570;2023-08-08T09:53:40;13.57;;;6.72;;
70216;SDS011;65567;55.684;37.570;2023-08-08T09:56:07;12.23;;;7.68;;
70216;SDS011;65567;55.684;37.570;2023-08-08T09:58:33;12.15;;;7.35;;
70216;SDS011;65567;55.684;37.570;2023-08-08T10:00:59;14.05;;;7.03;;
70216;SDS011;65567;55.684;37.570;2023-08-08T10:03:26;14.43;;;6.57;;
70216;SDS011;65567;55.684;37.570;2023-08-08T10:05:56;13.70;;;6.45;;
70216;SDS011;65567;55.684;37.570;2023-08-08T10:08:22;13.40;;;6.90;;
70216;SDS011;65567;55.684;37.570;2023-08-08T10:10:49;11.00;;;6.45;;
70216;SDS011;65567;55.684;37.570;2023-08-08T10:13:20;16.52;;;7.15;;
70216;SDS011;65567;55.684;37.570;2023-08-08T10:15:46;14.00;;;8.27;;
70216;SDS011;65567;55.684;37.570;2023-08-08T10:18:12;13.02;;;7.28;;
70216;SDS011;65567;55.684;37.570;2023-08-08T10:20:40;12.57;;;7.40;;
70216;SDS011;65567;55.684;37.570;2023-08-08T10:23:09;10.30;;;6.38;;
70216;SDS011;65567;55.684;37.570;2023-08-08T10:25:35;13.98;;;6.47;;
70216;SDS011;65567;55.684;37.570;2023-08-08T10:28:06;13.77;;;6.15;;
70216;SDS011;65567;55.684;37.570;2023-08-08T10:30:45;13.05;;;7.80;;
70216;SDS011;65567;55.684;37.570;2023-08-08T10:35:56;12.32;;;6.82;;
70216;SDS011;65567;55.684;37.570;2023-08-08T10:38:39;15.98;;;7.55;;
70216;SDS011;65567;55.684;37.570;2023-08-08T10:41:13;15.43;;;8.02;;
70216;SDS011;65567;55.684;37.570;2023-08-08T10:43:51;13.13;;;7.50;;
70216;SDS011;65567;55.684;37.570;2023-08-08T10:46:23;14.38;;;7.03;;
70216;SDS011;65567;55.684;37.570;2023-08-08T10:48:51;13.40;;;6.93;;
70216;SDS011;65567;55.684;37.570;2023-08-08T10:51:18;14.73;;;7.53;;
70216;SDS011;65567;55.684;37.570;2023-08-08T10:53:44;13.55;;;6.55;;
70216;SDS011;65567;55.684;37.570;2023-08-08T10:56:12;12.77;;;7.55;;
70216;SDS011;65567;55.684;37.570;2023-08-08T10:58:39;12.38;;;7.20;;
70216;SDS011;65567;55.684;37.570;2023-08-08T11:01:06;14.30;;;7.10;;
70216;SDS011;65567;55.684;37.570;2023-08-08T11:03:37;17.02;;;7.38;;
70216;SDS011;65567;55.684;37.570;2023-08-08T11:06:05;14.32;;;6.93;;
70216;SDS011;65567;55.684;37.570;2023-08-08T11:08:35;12.35;;;6.57;;
70216;SDS011;65567;55.684;37.570;2023-08-08T11:11:05;10.80;;;6.20;;
70216;SDS011;65567;55.684;37.570;2023-08-08T11:13:32;13.93;;;6.65;;
70216;SDS011;65567;55.684;37.570;2023-08-08T11:15:58;13.90;;;6.28;;
70216;SDS011;65567;55.684;37.570;2023-08-08T11:18:26;11.35;;;7.57;;
70216;SDS011;65567;55.684;37.570;2023-08-08T11:20:53;11.60;;;6.78;;
70216;SDS011;65567;55.684;37.570;2023-08-08T11:23:19;14.00;;;7.18;;
70216;SDS011;65567;55.684;37.570;2023-08-08T11:25:47;13.52;;;6.82;;
70216;SDS011;65567;55.684;37.570;2023-08-08T11:28:15;10.23;;;7.50;;
70216;SDS011;65567;55.684;37.570;2023-08-08T11:30:41;13.15;;;6.75;;
70216;SDS011;65567;55.684;37.570;2023-08-08T11:33:08;12.27;;;5.53;;
70216;SDS011;65567;55.684;37.570;2023-08-08T11:35:36;12.90;;;7.15;;
70216;SDS011;65567;55.684;37.570;2023-08-08T11:38:02;12.10;;;7.30;;
70216;SDS011;65567;55.684;37.570;2023-08-08T11:40:31;14.13;;;7.68;;
70216;SDS011;65567;55.684;37.570;2023-08-08T11:43:00;14.52;;;7.82;;
70216;SDS011;65567;55.684;37.570;2023-08-08T11:45:28;14.27;;;8.82;;
70216;SDS011;65567;55.684;37.570;2023-08-08T11:47:54;13.13;;;6.75;;
70216;SDS011;65567;55.684;37.570;2023-08-08T11:50:21;16.83;;;7.30;;
70216;SDS011;65567;55.684;37.570;2023-08-08T11:52:52;12.32;;;7.18;;
70216;SDS011;65567;55.684;37.570;2023-08-08T11:55:19;12.05;;;6.90;;
70216;SDS011;65567;55.684;37.570;2023-08-08T11:57:47;11.50;;;7.47;;
70216;SDS011;65567;55.684;37.570;2023-08-08T12:00:14;11.43;;;7.28;;
70216;SDS011;65567;55.684;37.570;2023-08-08T12:02:41;9.75;;;6.43;;
70216;SDS011;65567;55.684;37.570;2023-08-08T12:05:12;9.98;;;6.38;;
70216;SDS011;65567;55.684;37.570;2023-08-08T12:07:46;12.02;;;7.20;;
70216;SDS011;65567;55.684;37.570;2023-08-08T12:10:14;13.50;;;7.53;;
70216;SDS011;65567;55.684;37.570;2023-08-08T12:12:43;11.95;;;7.05;;
70216;SDS011;65567;55.684;37.570;2023-08-08T12:15:09;15.55;;;7.72;;
70216;SDS011;65567;55.684;37.570;2023-08-08T12:17:38;12.20;;;7.28;;
70216;SDS011;65567;55.684;37.570;2023-08-08T12:20:05;12.38;;;7.70;;
70216;SDS011;65567;55.684;37.570;2023-08-08T12:22:33;12.15;;;7.18;;
70216;SDS011;65567;55.684;37.570;2023-08-08T12:24:59;14.85;;;7.30;;
70216;SDS011;65567;55.684;37.570;2023-08-08T12:27:25;13.35;;;7.35;;
70216;SDS011;65567;55.684;37.570;2023-08-08T12:29:50;15.00;;;7.13;;
70216;SDS011;65567;55.684;37.570;2023-08-08T12:32:20;16.58;;;7.13;;
70216;SDS011;65567;55.684;37.570;2023-08-08T12:34:49;12.43;;;7.85;;
70216;SDS011;65567;55.684;37.570;2023-08-08T12:37:16;13.15;;;8.93;;
70216;SDS011;65567;55.684;37.570;2023-08-08T12:39:44;12.98;;;7.47;;
70216;SDS011;65567;55.684;37.570;2023-08-08T12:42:10;14.65;;;7.90;;
70216;SDS011;65567;55.684;37.570;2023-08-08T12:44:36;11.55;;;8.45;;
70216;SDS011;65567;55.684;37.570;2023-08-08T12:47:02;11.65;;;8.65;;
70216;SDS011;65567;55.684;37.570;2023-08-08T12:49:31;15.90;;;8.43;;
70216;SDS011;65567;55.684;37.570;2023-08-08T12:51:56;11.43;;;7.63;;
70216;SDS011;65567;55.684;37.570;2023-08-08T12:54:22;12.75;;;9.55;;
70216;SDS011;65567;55.684;37.570;2023-08-08T12:56:48;17.08;;;9.40;;
70216;SDS011;65567;55.684;37.570;2023-08-08T12:59:14;11.68;;;8.98;;
70216;SDS011;65567;55.684;37.570;2023-08-08T13:01:40;15.90;;;8.00;;
70216;SDS011;65567;55.684;37.570;2023-08-08T13:04:06;10.18;;;6.75;;
70216;SDS011;65567;55.684;37.570;2023-08-08T13:06:32;10.77;;;7.55;;
70216;SDS011;65567;55.684;37.570;2023-08-08T13:08:59;13.68;;;7.90;;
70216;SDS011;65567;55.684;37.570;2023-08-08T13:11:25;16.77;;;8.32;;
70216;SDS011;65567;55.684;37.570;2023-08-08T13:13:51;14.00;;;7.70;;
70216;SDS011;65567;55.684;37.570;2023-08-08T13:16:17;13.02;;;8.35;;
70216;SDS011;65567;55.684;37.570;2023-08-08T13:18:43;13.55;;;8.98;;
70216;SDS011;65567;55.684;37.570;2023-08-08T13:21:09;12.05;;;8.15;;
70216;SDS011;65567;55.684;37.570;2023-08-08T13:23:36;17.15;;;7.80;;
70216;SDS011;65567;55.684;37.570;2023-08-08T13:26:02;14.13;;;8.90;;
70216;SDS011;65567;55.684;37.570;2023-08-08T13:28:29;11.30;;;7.38;;
70216;SDS011;65567;55.684;37.570;2023-08-08T13:30:55;12.52;;;8.80;;
70216;SDS011;65567;55.684;37.570;2023-08-08T13:33:23;13.95;;;8.23;;
70216;SDS011;65567;55.684;37.570;2023-08-08T13:35:49;17.63;;;8.70;;
70216;SDS011;65567;55.684;37.570;2023-08-08T13:38:15;12.15;;;7.88;;
70216;SDS011;65567;55.684;37.570;2023-08-08T13:40:41;14.27;;;7.57;;
70216;SDS011;65567;55.684;37.570;2023-08-08T13:43:07;20.33;;;7.88;;
70216;SDS011;65567;55.684;37.570;2023-08-08T13:45:33;15.10;;;7.70;;
70216;SDS011;65567;55.684;37.570;2023-08-08T13:47:59;13.77;;;7.63;;
70216;SDS011;65567;55.684;37.570;2023-08-08T13:50:25;12.23;;;7.50;;
70216;SDS011;65567;55.684;37.570;2023-08-08T13:52:51;16.25;;;8.10;;
70216;SDS011;65567;55.684;37.570;2023-08-08T13:55:18;16.33;;;7.93;;
70216;SDS011;65567;55.684;37.570;2023-08-08T13:57:44;21.48;;;8.05;;
70216;SDS011;65567;55.684;37.570;2023-08-08T14:00:12;12.38;;;7.65;;
70216;SDS011;65567;55.684;37.570;2023-08-08T14:02:39;11.38;;;7.30;;
70216;SDS011;65567;55.684;37.570;2023-08-08T14:05:06;15.02;;;8.07;;
70216;SDS011;65567;55.684;37.570;2023-08-08T14:07:33;14.48;;;7.93;;
70216;SDS011;65567;55.684;37.570;2023-08-08T14:10:02;12.50;;;7.33;;
70216;SDS011;65567;55.684;37.570;2023-08-08T14:12:29;10.90;;;7.55;;
70216;SDS011;65567;55.684;37.570;2023-08-08T14:14:55;13.98;;;7.80;;
70216;SDS011;65567;55.684;37.570;2023-08-08T14:17:23;9.02;;;7.32;;
70216;SDS011;65567;55.684;37.570;2023-08-08T14:19:49;15.90;;;8.00;;
70216;SDS011;65567;55.684;37.570;2023-08-08T14:22:15;13.35;;;7.63;;
70216;SDS011;65567;55.684;37.570;2023-08-08T14:24:43;10.70;;;7.60;;
70216;SDS011;65567;55.684;37.570;2023-08-08T14:27:10;14.63;;;8.00;;
70216;SDS011;65567;55.684;37.570;2023-08-08T14:29:36;17.15;;;8.07;;
70216;SDS011;65567;55.684;37.570;2023-08-08T14:32:02;11.02;;;6.85;;
70216;SDS011;65567;55.684;37.570;2023-08-08T14:34:33;12.30;;;7.57;;